sensor_id;sensor_type;location;lat;lon;timestamp;temperature;humidity
52979;DHT22;63430;53.186;6.598;2024-03-02T00:01:55;7.40;99.90
52979;DHT22;63430;53.186;6.598;2024-03-02T00:07:01;7.30;99.90
52979;DHT22;63430;53.186;6.598;2024-03-02T00:12:06;7.30;99.90
52979;DHT22;63430;53.186;6.598;2024-03-02T00:17:24;7.20;99.90
52979;DHT22;63430;53.186;6.598;2024-03-02T00:22:32;7.20;99.90
52979;DHT22;63430;53.186;6.598;2024-03-02T00:27:38;7.20;99.90
52979;DHT22;63430;53.186;6.598;2024-03-02T00:32:43;7.20;99.90
52979;DHT22;63430;53.186;6.598;2024-03-02T00:37:49;7.10;99.90
52979;DHT22;63430;53.186;6.598;2024-03-02T00:42:53;7.10;99.90
52979;DHT22;63430;53.186;6.598;2024-03-02T00:47:56;7.20;99.90
52979;DHT22;63430;53.186;6.598;2024-03-02T00:53:02;7.20;99.90
52979;DHT22;63430;53.186;6.598;2024-03-02T00:58:05;7.20;99.90
52979;DHT22;63430;53.186;6.598;2024-03-02T01:03:08;7.20;99.90
52979;DHT22;63430;53.186;6.598;2024-03-02T01:08:13;7.30;99.90
52979;DHT22;63430;53.186;6.598;2024-03-02T01:13:17;7.30;99.90
52979;DHT22;63430;53.186;6.598;2024-03-02T01:18:20;7.30;99.90
52979;DHT22;63430;53.186;6.598;2024-03-02T01:23:25;7.30;99.90
52979;DHT22;63430;53.186;6.598;2024-03-02T01:28:31;7.30;99.90
52979;DHT22;63430;53.186;6.598;2024-03-02T01:33:33;7.30;99.90
52979;DHT22;63430;53.186;6.598;2024-03-02T01:38:39;7.30;99.90
52979;DHT22;63430;53.186;6.598;2024-03-02T01:43:44;7.30;99.90
52979;DHT22;63430;53.186;6.598;2024-03-02T01:48:48;7.30;99.90
52979;DHT22;63430;53.186;6.598;2024-03-02T01:53:54;7.40;99.90
52979;DHT22;63430;53.186;6.598;2024-03-02T01:58:58;7.40;99.90
52979;DHT22;63430;53.186;6.598;2024-03-02T02:04:01;7.40;99.90
52979;DHT22;63430;53.186;6.598;2024-03-02T02:09:07;7.40;99.90
52979;DHT22;63430;53.186;6.598;2024-03-02T02:14:11;7.50;99.90
52979;DHT22;63430;53.186;6.598;2024-03-02T02:19:15;7.40;99.90
52979;DHT22;63430;53.186;6.598;2024-03-02T02:24:22;7.40;99.90
52979;DHT22;63430;53.186;6.598;2024-03-02T02:29:26;7.50;99.90
52979;DHT22;63430;53.186;6.598;2024-03-02T02:34:30;7.50;99.90
52979;DHT22;63430;53.186;6.598;2024-03-02T02:39:36;7.50;99.90
52979;DHT22;63430;53.186;6.598;2024-03-02T02:44:40;7.50;99.90
52979;DHT22;63430;53.186;6.598;2024-03-02T02:49:43;7.50;99.90
52979;DHT22;63430;53.186;6.598;2024-03-02T02:54:49;7.50;99.90
52979;DHT22;63430;53.186;6.598;2024-03-02T02:59:53;7.50;99.90
52979;DHT22;63430;53.186;6.598;2024-03-02T03:04:57;7.60;99.90
52979;DHT22;63430;53.186;6.598;2024-03-02T03:10:04;7.70;99.90
52979;DHT22;63430;53.186;6.598;2024-03-02T03:15:10;7.70;99.90
52979;DHT22;63430;53.186;6.598;2024-03-02T03:20:15;7.80;99.90
52979;DHT22;63430;53.186;6.598;2024-03-02T03:25:21;7.90;99.90
52979;DHT22;63430;53.186;6.598;2024-03-02T03:30:26;7.90;99.90
52979;DHT22;63430;53.186;6.598;2024-03-02T03:35:30;7.90;99.90
52979;DHT22;63430;53.186;6.598;2024-03-02T03:40:36;8.00;99.90
52979;DHT22;63430;53.186;6.598;2024-03-02T03:45:40;7.90;99.90
52979;DHT22;63430;53.186;6.598;2024-03-02T03:50:46;7.90;99.90
52979;DHT22;63430;53.186;6.598;2024-03-02T03:55:52;7.90;99.90
52979;DHT22;63430;53.186;6.598;2024-03-02T04:00:56;7.80;99.90
52979;DHT22;63430;53.186;6.598;2024-03-02T04:06:00;7.70;99.90
52979;DHT22;63430;53.186;6.598;2024-03-02T04:11:06;7.70;99.90
52979;DHT22;63430;53.186;6.598;2024-03-02T04:16:11;7.60;99.90
52979;DHT22;63430;53.186;6.598;2024-03-02T04:21:15;7.60;99.90
52979;DHT22;63430;53.186;6.598;2024-03-02T04:26:22;7.50;99.90
52979;DHT22;63430;53.186;6.598;2024-03-02T04:31:27;7.50;99.90
52979;DHT22;63430;53.186;6.598;2024-03-02T04:36:30;7.60;99.90
52979;DHT22;63430;53.186;6.598;2024-03-02T04:41:36;7.60;99.90
52979;DHT22;63430;53.186;6.598;2024-03-02T04:46:40;7.70;99.90
52979;DHT22;63430;53.186;6.598;2024-03-02T04:51:43;7.70;99.90
52979;DHT22;63430;53.186;6.598;2024-03-02T04:56:50;7.70;99.90
52979;DHT22;63430;53.186;6.598;2024-03-02T05:02:13;7.70;99.90
52979;DHT22;63430;53.186;6.598;2024-03-02T05:07:16;7.60;99.90
52979;DHT22;63430;53.186;6.598;2024-03-02T05:12:21;7.50;99.90
52979;DHT22;63430;53.186;6.598;2024-03-02T05:17:43;7.50;99.90
52979;DHT22;63430;53.186;6.598;2024-03-02T05:22:45;7.50;99.90
52979;DHT22;63430;53.186;6.598;2024-03-02T05:27:52;7.50;99.90
52979;DHT22;63430;53.186;6.598;2024-03-02T05:32:54;7.50;99.90
52979;DHT22;63430;53.186;6.598;2024-03-02T05:37:57;7.60;99.90
52979;DHT22;63430;53.186;6.598;2024-03-02T05:43:02;7.50;99.90
52979;DHT22;63430;53.186;6.598;2024-03-02T05:48:06;7.50;99.90
52979;DHT22;63430;53.186;6.598;2024-03-02T05:53:09;7.60;99.90
52979;DHT22;63430;53.186;6.598;2024-03-02T05:58:15;7.60;99.90
52979;DHT22;63430;53.186;6.598;2024-03-02T06:03:34;7.60;99.90
52979;DHT22;63430;53.186;6.598;2024-03-02T06:08:37;7.60;99.90
52979;DHT22;63430;53.186;6.598;2024-03-02T06:13:42;7.60;99.90
52979;DHT22;63430;53.186;6.598;2024-03-02T06:18:45;7.60;99.90
52979;DHT22;63430;53.186;6.598;2024-03-02T06:23:48;7.60;99.90
52979;DHT22;63430;53.186;6.598;2024-03-02T06:28:53;7.60;99.90
52979;DHT22;63430;53.186;6.598;2024-03-02T06:33:55;7.60;99.90
52979;DHT22;63430;53.186;6.598;2024-03-02T06:38:58;7.60;99.90
52979;DHT22;63430;53.186;6.598;2024-03-02T06:44:03;7.50;99.90
52979;DHT22;63430;53.186;6.598;2024-03-02T06:49:06;7.50;99.90
52979;DHT22;63430;53.186;6.598;2024-03-02T06:54:08;7.40;99.90
52979;DHT22;63430;53.186;6.598;2024-03-02T06:59:14;7.40;99.90
52979;DHT22;63430;53.186;6.598;2024-03-02T07:04:18;7.40;99.90
52979;DHT22;63430;53.186;6.598;2024-03-02T07:09:21;7.40;99.90
52979;DHT22;63430;53.186;6.598;2024-03-02T07:14:28;7.40;99.90
52979;DHT22;63430;53.186;6.598;2024-03-02T07:19:50;7.40;99.90
52979;DHT22;63430;53.186;6.598;2024-03-02T07:24:53;7.30;99.90
52979;DHT22;63430;53.186;6.598;2024-03-02T07:29:58;7.40;99.90
52979;DHT22;63430;53.186;6.598;2024-03-02T07:35:00;7.50;99.90
52979;DHT22;63430;53.186;6.598;2024-03-02T07:40:04;7.60;99.90
52979;DHT22;63430;53.186;6.598;2024-03-02T07:45:10;7.70;99.90
52979;DHT22;63430;53.186;6.598;2024-03-02T07:50:12;7.80;99.90
52979;DHT22;63430;53.186;6.598;2024-03-02T07:55:15;8.00;99.90
52979;DHT22;63430;53.186;6.598;2024-03-02T08:00:22;8.10;99.90
52979;DHT22;63430;53.186;6.598;2024-03-02T08:05:27;8.10;99.90
52979;DHT22;63430;53.186;6.598;2024-03-02T08:10:29;8.20;99.90
52979;DHT22;63430;53.186;6.598;2024-03-02T08:15:35;8.20;99.90
52979;DHT22;63430;53.186;6.598;2024-03-02T08:20:37;8.30;99.90
52979;DHT22;63430;53.186;6.598;2024-03-02T08:25:41;8.40;99.90
52979;DHT22;63430;53.186;6.598;2024-03-02T08:30:46;8.40;99.90
52979;DHT22;63430;53.186;6.598;2024-03-02T08:35:51;8.40;99.90
52979;DHT22;63430;53.186;6.598;2024-03-02T08:40:54;8.50;99.90
52979;DHT22;63430;53.186;6.598;2024-03-02T08:45:59;8.60;99.90
52979;DHT22;63430;53.186;6.598;2024-03-02T08:51:02;8.90;99.90
52979;DHT22;63430;53.186;6.598;2024-03-02T08:56:07;9.20;99.90
52979;DHT22;63430;53.186;6.598;2024-03-02T09:01:32;9.50;99.90
52979;DHT22;63430;53.186;6.598;2024-03-02T09:06:37;9.90;99.90
52979;DHT22;63430;53.186;6.598;2024-03-02T09:11:41;9.90;99.90
52979;DHT22;63430;53.186;6.598;2024-03-02T09:17:06;9.90;99.90
52979;DHT22;63430;53.186;6.598;2024-03-02T09:22:09;10.10;99.90
52979;DHT22;63430;53.186;6.598;2024-03-02T09:27:12;10.40;99.90
52979;DHT22;63430;53.186;6.598;2024-03-02T09:32:38;10.50;99.90
52979;DHT22;63430;53.186;6.598;2024-03-02T09:37:40;10.50;99.90
52979;DHT22;63430;53.186;6.598;2024-03-02T09:42:43;10.50;99.90
52979;DHT22;63430;53.186;6.598;2024-03-02T09:47:55;10.40;99.90
52979;DHT22;63430;53.186;6.598;2024-03-02T09:53:00;10.50;99.90
52979;DHT22;63430;53.186;6.598;2024-03-02T09:58:03;10.60;99.90
52979;DHT22;63430;53.186;6.598;2024-03-02T10:03:29;10.70;99.90
52979;DHT22;63430;53.186;6.598;2024-03-02T10:08:43;10.80;99.90
52979;DHT22;63430;53.186;6.598;2024-03-02T10:13:46;10.80;99.90
52979;DHT22;63430;53.186;6.598;2024-03-02T10:19:22;10.80;99.90
52979;DHT22;63430;53.186;6.598;2024-03-02T10:24:45;11.00;99.90
52979;DHT22;63430;53.186;6.598;2024-03-02T10:29:51;11.20;99.90
52979;DHT22;63430;53.186;6.598;2024-03-02T10:35:17;11.30;99.90
52979;DHT22;63430;53.186;6.598;2024-03-02T10:46:34;11.70;99.90
52979;DHT22;63430;53.186;6.598;2024-03-02T10:51:40;11.80;99.90
52979;DHT22;63430;53.186;6.598;2024-03-02T10:57:04;11.80;99.40
52979;DHT22;63430;53.186;6.598;2024-03-02T11:02:30;11.80;98.80
52979;DHT22;63430;53.186;6.598;2024-03-02T11:07:37;11.90;98.70
52979;DHT22;63430;53.186;6.598;2024-03-02T11:12:48;12.10;97.60
52979;DHT22;63430;53.186;6.598;2024-03-02T11:18:15;12.10;97.40
52979;DHT22;63430;53.186;6.598;2024-03-02T11:23:31;12.20;96.30
52979;DHT22;63430;53.186;6.598;2024-03-02T11:28:55;12.10;95.50
52979;DHT22;63430;53.186;6.598;2024-03-02T11:34:17;12.20;95.70
52979;DHT22;63430;53.186;6.598;2024-03-02T11:39:44;12.20;94.80
52979;DHT22;63430;53.186;6.598;2024-03-02T11:45:08;12.20;94.50
52979;DHT22;63430;53.186;6.598;2024-03-02T11:50:29;12.30;94.10
52979;DHT22;63430;53.186;6.598;2024-03-02T11:55:55;12.40;93.30
52979;DHT22;63430;53.186;6.598;2024-03-02T12:00:58;12.60;91.60
52979;DHT22;63430;53.186;6.598;2024-03-02T12:06:04;12.60;90.00
52979;DHT22;63430;53.186;6.598;2024-03-02T12:11:13;12.60;90.10
52979;DHT22;63430;53.186;6.598;2024-03-02T12:16:23;12.80;87.50
52979;DHT22;63430;53.186;6.598;2024-03-02T12:21:26;12.70;85.40
52979;DHT22;63430;53.186;6.598;2024-03-02T12:26:52;12.40;84.20
52979;DHT22;63430;53.186;6.598;2024-03-02T12:31:55;12.50;84.10
52979;DHT22;63430;53.186;6.598;2024-03-02T12:36:59;12.60;83.80
52979;DHT22;63430;53.186;6.598;2024-03-02T12:42:24;12.50;83.00
52979;DHT22;63430;53.186;6.598;2024-03-02T12:47:27;12.40;82.50
52979;DHT22;63430;53.186;6.598;2024-03-02T12:52:30;12.30;82.70
52979;DHT22;63430;53.186;6.598;2024-03-02T12:57:57;12.30;83.60
52979;DHT22;63430;53.186;6.598;2024-03-02T13:03:03;12.50;82.60
52979;DHT22;63430;53.186;6.598;2024-03-02T13:08:06;12.40;82.10
52979;DHT22;63430;53.186;6.598;2024-03-02T13:13:24;12.40;81.90
52979;DHT22;63430;53.186;6.598;2024-03-02T13:18:30;12.60;80.30
52979;DHT22;63430;53.186;6.598;2024-03-02T13:23:36;12.70;79.60
52979;DHT22;63430;53.186;6.598;2024-03-02T13:28:41;12.90;79.00
52979;DHT22;63430;53.186;6.598;2024-03-02T13:34:04;13.00;79.60
52979;DHT22;63430;53.186;6.598;2024-03-02T13:39:07;13.10;79.80
52979;DHT22;63430;53.186;6.598;2024-03-02T13:44:35;12.90;79.20
52979;DHT22;63430;53.186;6.598;2024-03-02T13:49:58;12.70;79.40
52979;DHT22;63430;53.186;6.598;2024-03-02T13:55:01;12.70;79.40
52979;DHT22;63430;53.186;6.598;2024-03-02T14:00:09;12.60;79.20
52979;DHT22;63430;53.186;6.598;2024-03-02T14:05:15;12.60;79.20
52979;DHT22;63430;53.186;6.598;2024-03-02T14:10:37;12.60;80.00
52979;DHT22;63430;53.186;6.598;2024-03-02T14:15:43;12.60;79.40
52979;DHT22;63430;53.186;6.598;2024-03-02T14:21:06;12.70;78.60
52979;DHT22;63430;53.186;6.598;2024-03-02T14:26:09;12.80;78.10
52979;DHT22;63430;53.186;6.598;2024-03-02T14:31:35;12.80;77.40
52979;DHT22;63430;53.186;6.598;2024-03-02T14:36:38;12.80;77.30
52979;DHT22;63430;53.186;6.598;2024-03-02T14:42:03;12.90;77.70
52979;DHT22;63430;53.186;6.598;2024-03-02T14:47:31;13.00;77.20
52979;DHT22;63430;53.186;6.598;2024-03-02T14:52:34;13.10;76.60
52979;DHT22;63430;53.186;6.598;2024-03-02T14:57:40;13.20;76.40
52979;DHT22;63430;53.186;6.598;2024-03-02T15:03:08;13.00;75.90
52979;DHT22;63430;53.186;6.598;2024-03-02T15:08:11;12.90;75.90
52979;DHT22;63430;53.186;6.598;2024-03-02T15:13:14;12.80;76.40
52979;DHT22;63430;53.186;6.598;2024-03-02T15:18:40;12.80;76.60
52979;DHT22;63430;53.186;6.598;2024-03-02T15:23:43;12.90;76.50
52979;DHT22;63430;53.186;6.598;2024-03-02T15:28:53;12.80;76.70
52979;DHT22;63430;53.186;6.598;2024-03-02T15:34:03;12.60;76.90
52979;DHT22;63430;53.186;6.598;2024-03-02T15:39:12;12.60;77.30
52979;DHT22;63430;53.186;6.598;2024-03-02T15:44:16;12.60;78.00
52979;DHT22;63430;53.186;6.598;2024-03-02T15:49:42;12.60;78.40
52979;DHT22;63430;53.186;6.598;2024-03-02T15:54:44;12.50;78.80
52979;DHT22;63430;53.186;6.598;2024-03-02T16:00:19;12.50;79.50
52979;DHT22;63430;53.186;6.598;2024-03-02T16:05:45;12.30;80.00
52979;DHT22;63430;53.186;6.598;2024-03-02T16:10:47;12.20;80.70
52979;DHT22;63430;53.186;6.598;2024-03-02T16:15:50;12.10;81.50
52979;DHT22;63430;53.186;6.598;2024-03-02T16:21:15;12.00;82.20
52979;DHT22;63430;53.186;6.598;2024-03-02T16:26:18;11.90;83.30
52979;DHT22;63430;53.186;6.598;2024-03-02T16:31:21;11.80;84.40
52979;DHT22;63430;53.186;6.598;2024-03-02T16:36:36;11.70;85.40
52979;DHT22;63430;53.186;6.598;2024-03-02T16:42:00;11.60;86.90
52979;DHT22;63430;53.186;6.598;2024-03-02T16:47:05;11.40;88.60
52979;DHT22;63430;53.186;6.598;2024-03-02T16:52:30;11.30;89.90
52979;DHT22;63430;53.186;6.598;2024-03-02T16:57:53;11.20;90.70
52979;DHT22;63430;53.186;6.598;2024-03-02T17:02:56;11.10;91.50
52979;DHT22;63430;53.186;6.598;2024-03-02T17:08:21;11.00;92.10
52979;DHT22;63430;53.186;6.598;2024-03-02T17:13:24;10.90;93.00
52979;DHT22;63430;53.186;6.598;2024-03-02T17:18:26;10.80;93.60
52979;DHT22;63430;53.186;6.598;2024-03-02T17:23:57;10.50;94.00
52979;DHT22;63430;53.186;6.598;2024-03-02T17:29:00;10.30;95.40
52979;DHT22;63430;53.186;6.598;2024-03-02T17:34:04;10.00;97.30
52979;DHT22;63430;53.186;6.598;2024-03-02T17:39:29;9.90;98.40
52979;DHT22;63430;53.186;6.598;2024-03-02T17:44:31;9.80;99.30
52979;DHT22;63430;53.186;6.598;2024-03-02T17:49:34;9.70;99.90
52979;DHT22;63430;53.186;6.598;2024-03-02T17:54:59;9.60;99.90
52979;DHT22;63430;53.186;6.598;2024-03-02T18:00:03;9.50;99.90
52979;DHT22;63430;53.186;6.598;2024-03-02T18:05:12;9.40;99.90
52979;DHT22;63430;53.186;6.598;2024-03-02T18:10:18;9.30;99.90
52979;DHT22;63430;53.186;6.598;2024-03-02T18:15:41;9.30;99.90
52979;DHT22;63430;53.186;6.598;2024-03-02T18:20:43;9.30;99.90
52979;DHT22;63430;53.186;6.598;2024-03-02T18:25:50;9.30;99.90
52979;DHT22;63430;53.186;6.598;2024-03-02T18:30:53;9.30;99.90
52979;DHT22;63430;53.186;6.598;2024-03-02T18:36:17;9.30;99.90
52979;DHT22;63430;53.186;6.598;2024-03-02T18:41:22;9.40;99.90
52979;DHT22;63430;53.186;6.598;2024-03-02T18:46:25;9.50;99.90
52979;DHT22;63430;53.186;6.598;2024-03-02T18:51:28;9.60;99.90
52979;DHT22;63430;53.186;6.598;2024-03-02T18:56:53;9.70;99.90
52979;DHT22;63430;53.186;6.598;2024-03-02T19:02:17;9.70;99.90
52979;DHT22;63430;53.186;6.598;2024-03-02T19:07:39;9.70;99.90
52979;DHT22;63430;53.186;6.598;2024-03-02T19:12:46;9.70;99.90
52979;DHT22;63430;53.186;6.598;2024-03-02T19:18:10;9.70;99.90
52979;DHT22;63430;53.186;6.598;2024-03-02T19:23:12;9.70;99.90
52979;DHT22;63430;53.186;6.598;2024-03-02T19:28:49;9.70;99.90
52979;DHT22;63430;53.186;6.598;2024-03-02T19:33:51;9.70;99.90
52979;DHT22;63430;53.186;6.598;2024-03-02T19:38:55;9.60;99.90
52979;DHT22;63430;53.186;6.598;2024-03-02T19:44:00;9.70;99.90
52979;DHT22;63430;53.186;6.598;2024-03-02T19:49:25;9.70;99.90
52979;DHT22;63430;53.186;6.598;2024-03-02T19:54:31;9.70;99.90
52979;DHT22;63430;53.186;6.598;2024-03-02T19:59:38;9.60;99.90
52979;DHT22;63430;53.186;6.598;2024-03-02T20:05:01;9.50;99.90
52979;DHT22;63430;53.186;6.598;2024-03-02T20:10:04;9.50;99.90
52979;DHT22;63430;53.186;6.598;2024-03-02T20:15:12;9.40;99.90
52979;DHT22;63430;53.186;6.598;2024-03-02T20:20:23;9.40;99.90
52979;DHT22;63430;53.186;6.598;2024-03-02T20:25:26;9.40;99.90
52979;DHT22;63430;53.186;6.598;2024-03-02T20:30:31;9.40;99.90
52979;DHT22;63430;53.186;6.598;2024-03-02T20:35:34;9.60;99.90
52979;DHT22;63430;53.186;6.598;2024-03-02T20:40:45;9.60;99.90
52979;DHT22;63430;53.186;6.598;2024-03-02T20:46:13;9.60;99.90
52979;DHT22;63430;53.186;6.598;2024-03-02T20:51:16;9.60;99.90
52979;DHT22;63430;53.186;6.598;2024-03-02T20:56:18;9.60;99.90
52979;DHT22;63430;53.186;6.598;2024-03-02T21:01:46;9.60;99.90
52979;DHT22;63430;53.186;6.598;2024-03-02T21:06:49;9.60;99.90
52979;DHT22;63430;53.186;6.598;2024-03-02T21:11:52;9.60;99.90
52979;DHT22;63430;53.186;6.598;2024-03-02T21:16:57;9.50;99.90
52979;DHT22;63430;53.186;6.598;2024-03-02T21:22:20;9.40;99.90
52979;DHT22;63430;53.186;6.598;2024-03-02T21:27:24;9.40;99.90
52979;DHT22;63430;53.186;6.598;2024-03-02T21:32:29;9.30;99.90
52979;DHT22;63430;53.186;6.598;2024-03-02T21:37:34;9.20;99.90
52979;DHT22;63430;53.186;6.598;2024-03-02T21:42:57;9.20;99.90
52979;DHT22;63430;53.186;6.598;2024-03-02T21:48:08;9.10;99.90
52979;DHT22;63430;53.186;6.598;2024-03-02T21:53:11;9.10;99.90
52979;DHT22;63430;53.186;6.598;2024-03-02T21:58:17;9.10;99.90
52979;DHT22;63430;53.186;6.598;2024-03-02T22:03:43;9.10;99.90
52979;DHT22;63430;53.186;6.598;2024-03-02T22:08:53;9.10;99.90
52979;DHT22;63430;53.186;6.598;2024-03-02T22:13:56;9.00;99.90
52979;DHT22;63430;53.186;6.598;2024-03-02T22:19:01;9.00;99.90
52979;DHT22;63430;53.186;6.598;2024-03-02T22:24:23;9.00;99.90
52979;DHT22;63430;53.186;6.598;2024-03-02T22:29:27;8.90;99.90
52979;DHT22;63430;53.186;6.598;2024-03-02T22:34:32;8.80;99.90
52979;DHT22;63430;53.186;6.598;2024-03-02T22:39:35;8.80;99.90
52979;DHT22;63430;53.186;6.598;2024-03-02T22:44:58;8.80;99.90
52979;DHT22;63430;53.186;6.598;2024-03-02T22:50:05;8.70;99.90
52979;DHT22;63430;53.186;6.598;2024-03-02T22:55:08;8.70;99.90
52979;DHT22;63430;53.186;6.598;2024-03-02T23:00:33;8.60;99.90
52979;DHT22;63430;53.186;6.598;2024-03-02T23:05:38;8.60;99.90
52979;DHT22;63430;53.186;6.598;2024-03-02T23:10:41;8.60;99.90
52979;DHT22;63430;53.186;6.598;2024-03-02T23:15:44;8.50;99.90
52979;DHT22;63430;53.186;6.598;2024-03-02T23:21:09;8.50;99.90
52979;DHT22;63430;53.186;6.598;2024-03-02T23:26:12;8.40;99.90
52979;DHT22;63430;53.186;6.598;2024-03-02T23:31:14;8.40;99.90
52979;DHT22;63430;53.186;6.598;2024-03-02T23:36:20;8.40;99.90
52979;DHT22;63430;53.186;6.598;2024-03-02T23:41:43;8.30;99.90
52979;DHT22;63430;53.186;6.598;2024-03-02T23:46:45;8.30;99.90
52979;DHT22;63430;53.186;6.598;2024-03-02T23:51:51;8.30;99.90
52979;DHT22;63430;53.186;6.598;2024-03-02T23:56:54;8.20;99.90
